sensor_id;sensor_type;location;lat;lon;timestamp;pressure;altitude;pressure_sealevel;temperature;humidity
62126;BME280;48112;53.282;6.150;2022-09-09T00:00:46;100801.66;;;14.61;91.51
62126;BME280;48112;53.282;6.150;2022-09-09T00:01:50;100798.53;;;14.59;91.84
62126;BME280;48112;53.282;6.150;2022-09-09T00:03:00;100800.88;;;14.60;91.30
62126;BME280;48112;53.282;6.150;2022-09-09T00:04:05;100800.09;;;14.60;91.15
62126;BME280;48112;53.282;6.150;2022-09-09T00:05:14;100799.69;;;14.58;91.31
62126;BME280;48112;53.282;6.150;2022-09-09T00:06:21;100801.22;;;14.55;91.54
62126;BME280;48112;53.282;6.150;2022-09-09T00:07:28;100798.84;;;14.54;91.13
62126;BME280;48112;53.282;6.150;2022-09-09T00:08:38;100796.47;;;14.49;91.34
62126;BME280;48112;53.282;6.150;2022-09-09T00:09:45;100799.19;;;14.49;91.20
62126;BME280;48112;53.282;6.150;2022-09-09T00:10:51;100796.78;;;14.44;91.68
62126;BME280;48112;53.282;6.150;2022-09-09T00:11:57;100800.97;;;14.41;91.53
62126;BME280;48112;53.282;6.150;2022-09-09T00:13:03;100799.81;;;14.39;91.71
62126;BME280;48112;53.282;6.150;2022-09-09T00:14:09;100798.25;;;14.38;91.52
62126;BME280;48112;53.282;6.150;2022-09-09T00:15:17;100796.25;;;14.35;91.46
62126;BME280;48112;53.282;6.150;2022-09-09T00:16:21;100791.53;;;14.32;91.62
62126;BME280;48112;53.282;6.150;2022-09-09T00:17:30;100792.69;;;14.31;91.25
62126;BME280;48112;53.282;6.150;2022-09-09T00:18:44;100791.13;;;14.30;91.65
62126;BME280;48112;53.282;6.150;2022-09-09T00:19:51;100791.88;;;14.27;91.27
62126;BME280;48112;53.282;6.150;2022-09-09T00:20:58;100788.78;;;14.28;91.51
62126;BME280;48112;53.282;6.150;2022-09-09T00:22:07;100787.16;;;14.24;90.94
62126;BME280;48112;53.282;6.150;2022-09-09T00:23:17;100784.09;;;14.25;91.09
62126;BME280;48112;53.282;6.150;2022-09-09T00:24:24;100777.88;;;14.25;91.28
62126;BME280;48112;53.282;6.150;2022-09-09T00:25:28;100778.22;;;14.23;91.11
62126;BME280;48112;53.282;6.150;2022-09-09T00:26:35;100780.13;;;14.23;91.58
62126;BME280;48112;53.282;6.150;2022-09-09T00:27:40;100774.69;;;14.23;90.98
62126;BME280;48112;53.282;6.150;2022-09-09T00:28:45;100778.56;;;14.22;91.11
62126;BME280;48112;53.282;6.150;2022-09-09T00:29:51;100787.09;;;14.20;91.17
62126;BME280;48112;53.282;6.150;2022-09-09T00:30:55;100779.72;;;14.21;90.94
62126;BME280;48112;53.282;6.150;2022-09-09T00:31:59;100775.81;;;14.18;91.31
62126;BME280;48112;53.282;6.150;2022-09-09T00:33:09;100777.34;;;14.19;90.84
62126;BME280;48112;53.282;6.150;2022-09-09T00:34:15;100777.72;;;14.18;91.47
62126;BME280;48112;53.282;6.150;2022-09-09T00:35:21;100774.63;;;14.16;91.04
62126;BME280;48112;53.282;6.150;2022-09-09T00:36:24;100783.88;;;14.15;91.18
62126;BME280;48112;53.282;6.150;2022-09-09T00:37:29;100779.56;;;14.10;90.70
62126;BME280;48112;53.282;6.150;2022-09-09T00:38:35;100785.78;;;14.11;90.86
62126;BME280;48112;53.282;6.150;2022-09-09T00:39:39;100772.22;;;14.11;90.82
62126;BME280;48112;53.282;6.150;2022-09-09T00:40:45;100773.34;;;14.10;91.05
62126;BME280;48112;53.282;6.150;2022-09-09T00:41:54;100779.94;;;14.09;90.13
62126;BME280;48112;53.282;6.150;2022-09-09T00:43:04;100772.94;;;14.08;90.48
62126;BME280;48112;53.282;6.150;2022-09-09T00:44:15;100776.78;;;14.07;90.27
62126;BME280;48112;53.282;6.150;2022-09-09T00:45:29;100776.38;;;14.05;90.63
62126;BME280;48112;53.282;6.150;2022-09-09T00:46:41;100778.31;;;14.04;90.39
62126;BME280;48112;53.282;6.150;2022-09-09T00:47:47;100773.66;;;14.05;90.27
62126;BME280;48112;53.282;6.150;2022-09-09T00:48:55;100766.66;;;14.04;90.82
62126;BME280;48112;53.282;6.150;2022-09-09T00:50:00;100776.38;;;14.05;90.77
62126;BME280;48112;53.282;6.150;2022-09-09T00:51:05;100771.31;;;14.03;90.83
62126;BME280;48112;53.282;6.150;2022-09-09T00:52:18;100771.66;;;14.02;90.83
62126;BME280;48112;53.282;6.150;2022-09-09T00:53:29;100761.97;;;14.01;90.75
62126;BME280;48112;53.282;6.150;2022-09-09T00:54:40;100768.53;;;14.00;90.61
62126;BME280;48112;53.282;6.150;2022-09-09T00:55:48;100775.09;;;13.99;90.46
62126;BME280;48112;53.282;6.150;2022-09-09T00:56:53;100768.91;;;13.98;90.60
62126;BME280;48112;53.282;6.150;2022-09-09T00:58:00;100773.56;;;13.98;90.34
62126;BME280;48112;53.282;6.150;2022-09-09T00:59:03;100778.97;;;13.98;90.36
62126;BME280;48112;53.282;6.150;2022-09-09T01:00:18;100772.00;;;13.97;90.36
62126;BME280;48112;53.282;6.150;2022-09-09T01:01:20;100783.22;;;13.95;91.14
62126;BME280;48112;53.282;6.150;2022-09-09T01:02:27;100768.84;;;13.95;90.64
62126;BME280;48112;53.282;6.150;2022-09-09T01:03:32;100767.28;;;13.94;90.60
62126;BME280;48112;53.282;6.150;2022-09-09T01:04:36;100768.84;;;13.95;90.41
62126;BME280;48112;53.282;6.150;2022-09-09T01:05:40;100767.28;;;13.94;90.29
62126;BME280;48112;53.282;6.150;2022-09-09T01:06:46;100771.56;;;13.95;90.02
62126;BME280;48112;53.282;6.150;2022-09-09T01:07:53;100770.41;;;13.96;90.27
62126;BME280;48112;53.282;6.150;2022-09-09T01:09:07;100759.56;;;13.96;90.79
62126;BME280;48112;53.282;6.150;2022-09-09T01:10:17;100763.44;;;13.95;90.43
62126;BME280;48112;53.282;6.150;2022-09-09T01:11:24;100773.13;;;13.96;90.26
62126;BME280;48112;53.282;6.150;2022-09-09T01:12:32;100764.22;;;13.95;90.69
62126;BME280;48112;53.282;6.150;2022-09-09T01:13:38;100764.22;;;13.95;90.60
62126;BME280;48112;53.282;6.150;2022-09-09T01:14:43;100758.00;;;13.95;90.48
62126;BME280;48112;53.282;6.150;2022-09-09T01:15:49;100760.72;;;13.95;90.44
62126;BME280;48112;53.282;6.150;2022-09-09T01:16:59;100762.63;;;13.94;90.60
62126;BME280;48112;53.282;6.150;2022-09-09T01:18:04;100761.06;;;13.93;90.10
62126;BME280;48112;53.282;6.150;2022-09-09T01:19:10;100767.28;;;13.94;90.25
62126;BME280;48112;53.282;6.150;2022-09-09T01:20:20;100764.16;;;13.92;90.63
62126;BME280;48112;53.282;6.150;2022-09-09T01:21:33;100769.16;;;13.90;89.95
62126;BME280;48112;53.282;6.150;2022-09-09T01:22:40;100763.78;;;13.93;89.43
62126;BME280;48112;53.282;6.150;2022-09-09T01:23:48;100775.78;;;13.92;89.07
62126;BME280;48112;53.282;6.150;2022-09-09T01:25:18;100766.50;;;13.93;90.20
62126;BME280;48112;53.282;6.150;2022-09-09T01:26:55;100764.16;;;13.92;90.03
62126;BME280;48112;53.282;6.150;2022-09-09T01:28:01;100767.63;;;13.92;89.67
62126;BME280;48112;53.282;6.150;2022-09-09T01:29:06;100765.34;;;13.94;89.88
62126;BME280;48112;53.282;6.150;2022-09-09T01:30:13;100768.84;;;13.95;89.57
62126;BME280;48112;53.282;6.150;2022-09-09T01:31:18;100771.56;;;13.95;90.00
62126;BME280;48112;53.282;6.150;2022-09-09T01:32:37;100768.50;;;13.96;89.96
62126;BME280;48112;53.282;6.150;2022-09-09T01:33:40;100763.84;;;13.97;90.01
62126;BME280;48112;53.282;6.150;2022-09-09T01:34:43;100764.63;;;13.97;89.84
62126;BME280;48112;53.282;6.150;2022-09-09T01:35:45;100765.84;;;14.00;90.15
62126;BME280;48112;53.282;6.150;2022-09-09T01:36:53;100769.31;;;14.00;90.33
62126;BME280;48112;53.282;6.150;2022-09-09T01:38:00;100762.38;;;14.03;90.90
62126;BME280;48112;53.282;6.150;2022-09-09T01:39:02;100767.81;;;14.03;90.37
62126;BME280;48112;53.282;6.150;2022-09-09T01:40:06;100759.69;;;14.03;90.21
62126;BME280;48112;53.282;6.150;2022-09-09T01:41:09;100762.81;;;14.05;90.04
62126;BME280;48112;53.282;6.150;2022-09-09T01:42:20;100764.75;;;14.04;89.86
62126;BME280;48112;53.282;6.150;2022-09-09T01:43:23;100763.22;;;14.07;89.99
62126;BME280;48112;53.282;6.150;2022-09-09T01:44:25;100765.94;;;14.07;89.94
62126;BME280;48112;53.282;6.150;2022-09-09T01:45:28;100762.09;;;14.08;89.61
62126;BME280;48112;53.282;6.150;2022-09-09T01:46:30;100759.75;;;14.10;89.92
62126;BME280;48112;53.282;6.150;2022-09-09T01:47:34;100761.34;;;14.11;90.18
62126;BME280;48112;53.282;6.150;2022-09-09T01:48:43;100760.19;;;14.12;90.58
62126;BME280;48112;53.282;6.150;2022-09-09T01:49:45;100767.59;;;14.15;90.24
62126;BME280;48112;53.282;6.150;2022-09-09T01:50:55;100763.75;;;14.16;90.31
62126;BME280;48112;53.282;6.150;2022-09-09T01:51:58;100763.75;;;14.16;90.14
62126;BME280;48112;53.282;6.150;2022-09-09T01:53:05;100763.75;;;14.16;90.20
62126;BME280;48112;53.282;6.150;2022-09-09T01:54:07;100757.97;;;14.17;90.15
62126;BME280;48112;53.282;6.150;2022-09-09T01:55:09;100753.72;;;14.20;90.39
62126;BME280;48112;53.282;6.150;2022-09-09T01:56:22;100756.44;;;14.20;90.37
62126;BME280;48112;53.282;6.150;2022-09-09T01:57:31;100759.16;;;14.20;90.14
62126;BME280;48112;53.282;6.150;2022-09-09T01:58:39;100752.91;;;14.19;89.66
62126;BME280;48112;53.282;6.150;2022-09-09T01:59:48;100752.16;;;14.19;89.90
62126;BME280;48112;53.282;6.150;2022-09-09T02:00:56;100753.28;;;14.18;89.87
62126;BME280;48112;53.282;6.150;2022-09-09T02:02:07;100753.66;;;14.16;89.94
62126;BME280;48112;53.282;6.150;2022-09-09T02:03:15;100754.44;;;14.17;89.78
62126;BME280;48112;53.282;6.150;2022-09-09T02:04:33;100740.44;;;14.15;89.81
62126;BME280;48112;53.282;6.150;2022-09-09T02:05:43;100758.25;;;14.12;89.55
62126;BME280;48112;53.282;6.150;2022-09-09T02:06:55;100754.34;;;14.10;89.78
62126;BME280;48112;53.282;6.150;2022-09-09T02:08:03;100753.94;;;14.08;90.18
62126;BME280;48112;53.282;6.150;2022-09-09T02:09:15;100760.50;;;14.07;89.28
62126;BME280;48112;53.282;6.150;2022-09-09T02:10:23;100753.50;;;14.06;89.39
62126;BME280;48112;53.282;6.150;2022-09-09T02:11:37;100756.22;;;14.06;89.73
62126;BME280;48112;53.282;6.150;2022-09-09T02:12:50;100764.38;;;14.06;89.83
62126;BME280;48112;53.282;6.150;2022-09-09T02:13:55;100755.81;;;14.04;89.91
62126;BME280;48112;53.282;6.150;2022-09-09T02:15:00;100758.50;;;14.04;89.93
62126;BME280;48112;53.282;6.150;2022-09-09T02:16:12;100764.31;;;14.02;89.32
62126;BME280;48112;53.282;6.150;2022-09-09T02:17:16;100758.09;;;14.02;89.56
62126;BME280;48112;53.282;6.150;2022-09-09T02:18:33;100754.19;;;13.99;90.05
62126;BME280;48112;53.282;6.150;2022-09-09T02:19:39;100749.13;;;13.98;89.76
62126;BME280;48112;53.282;6.150;2022-09-09T02:21:06;100753.75;;;13.97;90.24
62126;BME280;48112;53.282;6.150;2022-09-09T02:22:09;100752.56;;;13.95;90.23
62126;BME280;48112;53.282;6.150;2022-09-09T02:23:11;100752.56;;;13.95;90.03
62126;BME280;48112;53.282;6.150;2022-09-09T02:24:15;100747.50;;;13.93;90.15
62126;BME280;48112;53.282;6.150;2022-09-09T02:25:25;100759.50;;;13.92;89.89
62126;BME280;48112;53.282;6.150;2022-09-09T02:26:33;100749.00;;;13.91;90.03
62126;BME280;48112;53.282;6.150;2022-09-09T02:27:40;100746.28;;;13.91;90.31
62126;BME280;48112;53.282;6.150;2022-09-09T02:28:47;100755.59;;;13.90;89.90
62126;BME280;48112;53.282;6.150;2022-09-09T02:29:50;100754.03;;;13.89;90.60
62126;BME280;48112;53.282;6.150;2022-09-09T02:31:05;100755.16;;;13.88;90.72
62126;BME280;48112;53.282;6.150;2022-09-09T02:32:15;100760.94;;;13.86;90.40
62126;BME280;48112;53.282;6.150;2022-09-09T02:33:21;100757.47;;;13.86;90.67
62126;BME280;48112;53.282;6.150;2022-09-09T02:34:24;100757.06;;;13.84;90.93
62126;BME280;48112;53.282;6.150;2022-09-09T02:35:30;100751.19;;;13.82;90.45
62126;BME280;48112;53.282;6.150;2022-09-09T02:36:33;100760.50;;;13.81;90.17
62126;BME280;48112;53.282;6.150;2022-09-09T02:37:40;100755.81;;;13.81;90.54
62126;BME280;48112;53.282;6.150;2022-09-09T02:38:45;100756.56;;;13.78;90.30
62126;BME280;48112;53.282;6.150;2022-09-09T02:39:53;100751.94;;;13.79;91.19
62126;BME280;48112;53.282;6.150;2022-09-09T02:40:56;100742.22;;;13.78;90.93
62126;BME280;48112;53.282;6.150;2022-09-09T02:42:00;100751.50;;;13.77;91.06
62126;BME280;48112;53.282;6.150;2022-09-09T02:43:06;100747.22;;;13.76;91.02
62126;BME280;48112;53.282;6.150;2022-09-09T02:44:11;100751.50;;;13.77;90.22
62126;BME280;48112;53.282;6.150;2022-09-09T02:45:14;100749.94;;;13.76;90.63
62126;BME280;48112;53.282;6.150;2022-09-09T02:46:34;100749.50;;;13.74;90.74
62126;BME280;48112;53.282;6.150;2022-09-09T02:47:41;100753.03;;;13.74;90.87
62126;BME280;48112;53.282;6.150;2022-09-09T02:48:52;100752.22;;;13.74;90.81
62126;BME280;48112;53.282;6.150;2022-09-09T02:50:02;100756.09;;;13.73;91.07
62126;BME280;48112;53.282;6.150;2022-09-09T02:51:09;100756.84;;;13.73;90.83
62126;BME280;48112;53.282;6.150;2022-09-09T02:52:17;100753.38;;;13.73;91.05
62126;BME280;48112;53.282;6.150;2022-09-09T02:53:22;100753.75;;;13.71;91.31
62126;BME280;48112;53.282;6.150;2022-09-09T02:54:27;100746.72;;;13.70;90.58
62126;BME280;48112;53.282;6.150;2022-09-09T02:55:37;100749.44;;;13.70;90.39
62126;BME280;48112;53.282;6.150;2022-09-09T02:56:42;100746.72;;;13.70;90.70
62126;BME280;48112;53.282;6.150;2022-09-09T02:57:49;100745.13;;;13.66;90.64
62126;BME280;48112;53.282;6.150;2022-09-09T02:58:53;100749.81;;;13.69;90.62
62126;BME280;48112;53.282;6.150;2022-09-09T02:59:58;100750.59;;;13.69;91.23
62126;BME280;48112;53.282;6.150;2022-09-09T03:01:08;100756.41;;;13.68;91.35
62126;BME280;48112;53.282;6.150;2022-09-09T03:02:11;100749.41;;;13.67;91.15
62126;BME280;48112;53.282;6.150;2022-09-09T03:03:16;100755.97;;;13.66;91.08
62126;BME280;48112;53.282;6.150;2022-09-09T03:04:23;100754.41;;;13.65;91.79
62126;BME280;48112;53.282;6.150;2022-09-09T03:05:26;100748.19;;;13.64;91.32
62126;BME280;48112;53.282;6.150;2022-09-09T03:06:30;100753.19;;;13.62;91.31
62126;BME280;48112;53.282;6.150;2022-09-09T03:07:40;100754.72;;;13.60;91.35
62126;BME280;48112;53.282;6.150;2022-09-09T03:08:43;100762.41;;;13.57;91.71
62126;BME280;48112;53.282;6.150;2022-09-09T03:09:51;100756.59;;;13.56;91.43
62126;BME280;48112;53.282;6.150;2022-09-09T03:10:59;100750.75;;;13.53;91.43
62126;BME280;48112;53.282;6.150;2022-09-09T03:12:05;100741.00;;;13.52;91.96
62126;BME280;48112;53.282;6.150;2022-09-09T03:13:09;100754.19;;;13.50;91.96
62126;BME280;48112;53.282;6.150;2022-09-09T03:14:14;100750.25;;;13.48;92.27
62126;BME280;48112;53.282;6.150;2022-09-09T03:15:18;100744.06;;;13.47;92.10
62126;BME280;48112;53.282;6.150;2022-09-09T03:16:21;100754.91;;;13.47;92.19
62126;BME280;48112;53.282;6.150;2022-09-09T03:17:26;100753.31;;;13.46;92.47
62126;BME280;48112;53.282;6.150;2022-09-09T03:18:29;100754.03;;;13.43;92.01
62126;BME280;48112;53.282;6.150;2022-09-09T03:19:33;100748.63;;;13.43;92.13
62126;BME280;48112;53.282;6.150;2022-09-09T03:20:37;100748.19;;;13.41;91.87
62126;BME280;48112;53.282;6.150;2022-09-09T03:21:39;100742.75;;;13.41;92.09
62126;BME280;48112;53.282;6.150;2022-09-09T03:22:42;100748.19;;;13.41;92.40
62126;BME280;48112;53.282;6.150;2022-09-09T03:23:45;100743.56;;;13.42;91.64
62126;BME280;48112;53.282;6.150;2022-09-09T03:24:49;100751.31;;;13.43;92.44
62126;BME280;48112;53.282;6.150;2022-09-09T03:25:52;100747.06;;;13.42;92.49
62126;BME280;48112;53.282;6.150;2022-09-09T03:27:03;100743.19;;;13.43;92.63
62126;BME280;48112;53.282;6.150;2022-09-09T03:28:05;100747.06;;;13.42;92.09
62126;BME280;48112;53.282;6.150;2022-09-09T03:29:07;100748.97;;;13.42;92.60
62126;BME280;48112;53.282;6.150;2022-09-09T03:30:11;100741.63;;;13.42;92.36
62126;BME280;48112;53.282;6.150;2022-09-09T03:31:14;100743.19;;;13.43;92.67
62126;BME280;48112;53.282;6.150;2022-09-09T03:32:17;100745.91;;;13.43;92.04
62126;BME280;48112;53.282;6.150;2022-09-09T03:33:19;100743.19;;;13.43;92.61
62126;BME280;48112;53.282;6.150;2022-09-09T03:34:21;100743.19;;;13.43;92.05
62126;BME280;48112;53.282;6.150;2022-09-09T03:35:23;100740.91;;;13.45;92.13
62126;BME280;48112;53.282;6.150;2022-09-09T03:36:26;100741.72;;;13.46;92.44
62126;BME280;48112;53.282;6.150;2022-09-09T03:37:29;100746.34;;;13.45;92.61
62126;BME280;48112;53.282;6.150;2022-09-09T03:38:31;100742.06;;;13.44;92.69
62126;BME280;48112;53.282;6.150;2022-09-09T03:39:34;100735.84;;;13.44;92.86
62126;BME280;48112;53.282;6.150;2022-09-09T03:40:36;100742.06;;;13.44;92.20
62126;BME280;48112;53.282;6.150;2022-09-09T03:41:39;100744.78;;;13.44;92.66
62126;BME280;48112;53.282;6.150;2022-09-09T03:42:41;100740.91;;;13.45;92.94
62126;BME280;48112;53.282;6.150;2022-09-09T03:43:44;100746.69;;;13.44;92.53
62126;BME280;48112;53.282;6.150;2022-09-09T03:44:46;100740.91;;;13.45;91.97
62126;BME280;48112;53.282;6.150;2022-09-09T03:45:49;100745.53;;;13.45;92.43
62126;BME280;48112;53.282;6.150;2022-09-09T03:46:52;100742.06;;;13.44;92.18
62126;BME280;48112;53.282;6.150;2022-09-09T03:47:55;100740.13;;;13.45;92.53
62126;BME280;48112;53.282;6.150;2022-09-09T03:48:58;100743.63;;;13.45;92.69
62126;BME280;48112;53.282;6.150;2022-09-09T03:50:01;100742.84;;;13.45;92.75
62126;BME280;48112;53.282;6.150;2022-09-09T03:51:03;100751.75;;;13.45;92.93
62126;BME280;48112;53.282;6.150;2022-09-09T03:52:08;100749.41;;;13.44;93.03
62126;BME280;48112;53.282;6.150;2022-09-09T03:53:10;100746.34;;;13.45;92.55
62126;BME280;48112;53.282;6.150;2022-09-09T03:54:13;100745.53;;;13.45;93.14
62126;BME280;48112;53.282;6.150;2022-09-09T03:55:14;100740.91;;;13.45;93.31
62126;BME280;48112;53.282;6.150;2022-09-09T03:56:17;100746.34;;;13.45;93.24
62126;BME280;48112;53.282;6.150;2022-09-09T03:57:19;100747.50;;;13.44;92.50
62126;BME280;48112;53.282;6.150;2022-09-09T03:58:23;100746.34;;;13.45;93.00
62126;BME280;48112;53.282;6.150;2022-09-09T03:59:26;100752.56;;;13.46;93.15
62126;BME280;48112;53.282;6.150;2022-09-09T04:00:29;100754.09;;;13.47;92.80
62126;BME280;48112;53.282;6.150;2022-09-09T04:01:31;100750.59;;;13.46;93.01
62126;BME280;48112;53.282;6.150;2022-09-09T04:02:35;100747.91;;;13.46;93.24
62126;BME280;48112;53.282;6.150;2022-09-09T04:03:37;100748.69;;;13.47;92.88
62126;BME280;48112;53.282;6.150;2022-09-09T04:04:41;100748.69;;;13.47;92.69
62126;BME280;48112;53.282;6.150;2022-09-09T04:05:44;100755.66;;;13.48;93.15
62126;BME280;48112;53.282;6.150;2022-09-09T04:06:47;100751.03;;;13.48;92.66
62126;BME280;48112;53.282;6.150;2022-09-09T04:07:49;100756.88;;;13.50;92.96
62126;BME280;48112;53.282;6.150;2022-09-09T04:08:52;100759.59;;;13.50;93.60
62126;BME280;48112;53.282;6.150;2022-09-09T04:09:57;100753.81;;;13.52;93.22
62126;BME280;48112;53.282;6.150;2022-09-09T04:10:59;100747.59;;;13.51;93.03
62126;BME280;48112;53.282;6.150;2022-09-09T04:12:03;100748.38;;;13.52;93.62
62126;BME280;48112;53.282;6.150;2022-09-09T04:13:05;100751.88;;;13.52;93.69
62126;BME280;48112;53.282;6.150;2022-09-09T04:14:09;100753.03;;;13.51;93.68
62126;BME280;48112;53.282;6.150;2022-09-09T04:15:11;100750.31;;;13.51;93.84
62126;BME280;48112;53.282;6.150;2022-09-09T04:16:13;100750.31;;;13.51;93.15
62126;BME280;48112;53.282;6.150;2022-09-09T04:17:17;100747.22;;;13.53;93.77
62126;BME280;48112;53.282;6.150;2022-09-09T04:18:21;100746.44;;;13.52;94.04
62126;BME280;48112;53.282;6.150;2022-09-09T04:19:23;100743.41;;;13.54;93.42
62126;BME280;48112;53.282;6.150;2022-09-09T04:20:26;100743.41;;;13.54;93.59
62126;BME280;48112;53.282;6.150;2022-09-09T04:21:28;100741.44;;;13.54;93.93
62126;BME280;48112;53.282;6.150;2022-09-09T04:22:30;100743.44;;;13.57;94.19
62126;BME280;48112;53.282;6.150;2022-09-09T04:23:33;100741.88;;;13.57;94.00
62126;BME280;48112;53.282;6.150;2022-09-09T04:24:38;100739.16;;;13.57;93.94
62126;BME280;48112;53.282;6.150;2022-09-09T04:25:43;100744.22;;;13.58;94.20
62126;BME280;48112;53.282;6.150;2022-09-09T04:26:46;100739.59;;;13.59;94.05
62126;BME280;48112;53.282;6.150;2022-09-09T04:27:52;100745.00;;;13.59;93.77
62126;BME280;48112;53.282;6.150;2022-09-09T04:28:56;100746.56;;;13.60;93.99
62126;BME280;48112;53.282;6.150;2022-09-09T04:29:58;100742.69;;;13.61;93.92
62126;BME280;48112;53.282;6.150;2022-09-09T04:31:04;100742.69;;;13.61;93.91
62126;BME280;48112;53.282;6.150;2022-09-09T04:32:07;100743.50;;;13.61;94.16
62126;BME280;48112;53.282;6.150;2022-09-09T04:33:10;100742.75;;;13.64;94.64
62126;BME280;48112;53.282;6.150;2022-09-09T04:34:13;100733.50;;;13.65;94.61
62126;BME280;48112;53.282;6.150;2022-09-09T04:35:16;100735.41;;;13.65;94.77
62126;BME280;48112;53.282;6.150;2022-09-09T04:36:18;100737.34;;;13.64;94.36
62126;BME280;48112;53.282;6.150;2022-09-09T04:37:23;100733.50;;;13.65;94.53
62126;BME280;48112;53.282;6.150;2022-09-09T04:38:26;100736.97;;;13.66;94.57
62126;BME280;48112;53.282;6.150;2022-09-09T04:39:29;100738.56;;;13.67;94.43
62126;BME280;48112;53.282;6.150;2022-09-09T04:40:33;100751.75;;;13.68;94.26
62126;BME280;48112;53.282;6.150;2022-09-09T04:41:36;100748.25;;;13.68;94.45
62126;BME280;48112;53.282;6.150;2022-09-09T04:42:39;100744.38;;;13.69;94.53
62126;BME280;48112;53.282;6.150;2022-09-09T04:43:48;100750.53;;;13.66;94.38
62126;BME280;48112;53.282;6.150;2022-09-09T04:44:50;100741.28;;;13.67;94.38
62126;BME280;48112;53.282;6.150;2022-09-09T04:45:53;100752.88;;;13.67;94.80
62126;BME280;48112;53.282;6.150;2022-09-09T04:46:58;100743.56;;;13.65;94.42
62126;BME280;48112;53.282;6.150;2022-09-09T04:48:01;100748.25;;;13.68;94.31
62126;BME280;48112;53.282;6.150;2022-09-09T04:49:04;100757.56;;;13.67;94.50
62126;BME280;48112;53.282;6.150;2022-09-09T04:50:10;100755.97;;;13.66;94.17
62126;BME280;48112;53.282;6.150;2022-09-09T04:51:13;100746.69;;;13.67;94.00
62126;BME280;48112;53.282;6.150;2022-09-09T04:52:19;100751.34;;;13.66;94.41
62126;BME280;48112;53.282;6.150;2022-09-09T04:53:23;100752.50;;;13.65;94.43
62126;BME280;48112;53.282;6.150;2022-09-09T04:54:28;100748.25;;;13.68;94.21
62126;BME280;48112;53.282;6.150;2022-09-09T04:55:32;100749.78;;;13.65;93.79
62126;BME280;48112;53.282;6.150;2022-09-09T04:56:37;100753.63;;;13.64;94.15
62126;BME280;48112;53.282;6.150;2022-09-09T04:57:39;100748.63;;;13.66;93.88
62126;BME280;48112;53.282;6.150;2022-09-09T04:58:45;100752.84;;;13.64;93.81
62126;BME280;48112;53.282;6.150;2022-09-09T04:59:48;100745.13;;;13.66;93.89
62126;BME280;48112;53.282;6.150;2022-09-09T05:00:51;100752.13;;;13.67;94.68
62126;BME280;48112;53.282;6.150;2022-09-09T05:01:54;100753.63;;;13.64;94.39
62126;BME280;48112;53.282;6.150;2022-09-09T05:02:56;100759.03;;;13.64;94.15
62126;BME280;48112;53.282;6.150;2022-09-09T05:03:59;100751.34;;;13.66;94.32
62126;BME280;48112;53.282;6.150;2022-09-09T05:05:01;100752.84;;;13.64;94.26
62126;BME280;48112;53.282;6.150;2022-09-09T05:06:06;100749.00;;;13.65;93.80
62126;BME280;48112;53.282;6.150;2022-09-09T05:07:10;100744.34;;;13.65;94.50
62126;BME280;48112;53.282;6.150;2022-09-09T05:08:13;100744.34;;;13.65;94.87
62126;BME280;48112;53.282;6.150;2022-09-09T05:09:17;100759.84;;;13.65;94.21
62126;BME280;48112;53.282;6.150;2022-09-09T05:10:20;100757.56;;;13.67;94.23
62126;BME280;48112;53.282;6.150;2022-09-09T05:11:24;100751.34;;;13.66;94.44
62126;BME280;48112;53.282;6.150;2022-09-09T05:12:27;100757.56;;;13.67;94.51
62126;BME280;48112;53.282;6.150;2022-09-09T05:13:30;100748.25;;;13.68;93.99
62126;BME280;48112;53.282;6.150;2022-09-09T05:14:34;100749.06;;;13.68;94.45
62126;BME280;48112;53.282;6.150;2022-09-09T05:15:37;100756.03;;;13.69;94.51
62126;BME280;48112;53.282;6.150;2022-09-09T05:16:39;100749.81;;;13.69;94.52
62126;BME280;48112;53.282;6.150;2022-09-09T05:17:42;100747.97;;;13.73;94.20
62126;BME280;48112;53.282;6.150;2022-09-09T05:18:44;100743.66;;;13.72;94.45
62126;BME280;48112;53.282;6.150;2022-09-09T05:19:47;100750.66;;;13.73;94.70
62126;BME280;48112;53.282;6.150;2022-09-09T05:20:49;100745.25;;;13.73;94.47
62126;BME280;48112;53.282;6.150;2022-09-09T05:21:54;100745.66;;;13.75;94.50
62126;BME280;48112;53.282;6.150;2022-09-09T05:23:01;100743.72;;;13.75;94.37
62126;BME280;48112;53.282;6.150;2022-09-09T05:24:06;100750.38;;;13.78;94.94
62126;BME280;48112;53.282;6.150;2022-09-09T05:25:08;100748.78;;;13.77;94.76
62126;BME280;48112;53.282;6.150;2022-09-09T05:26:12;100749.63;;;13.81;94.55
62126;BME280;48112;53.282;6.150;2022-09-09T05:27:19;100757.78;;;13.81;94.55
62126;BME280;48112;53.282;6.150;2022-09-09T05:28:23;100755.06;;;13.81;94.96
62126;BME280;48112;53.282;6.150;2022-09-09T05:29:26;100755.81;;;13.81;94.59
62126;BME280;48112;53.282;6.150;2022-09-09T05:30:30;100758.59;;;13.85;95.17
62126;BME280;48112;53.282;6.150;2022-09-09T05:31:34;100751.25;;;13.85;94.98
62126;BME280;48112;53.282;6.150;2022-09-09T05:32:42;100765.63;;;13.86;94.73
62126;BME280;48112;53.282;6.150;2022-09-09T05:33:46;100761.75;;;13.87;95.02
62126;BME280;48112;53.282;6.150;2022-09-09T05:34:50;100759.47;;;13.89;94.89
62126;BME280;48112;53.282;6.150;2022-09-09T05:35:57;100764.09;;;13.88;94.53
62126;BME280;48112;53.282;6.150;2022-09-09T05:37:01;100752.88;;;13.90;94.50
62126;BME280;48112;53.282;6.150;2022-09-09T05:38:03;100765.28;;;13.91;94.63
62126;BME280;48112;53.282;6.150;2022-09-09T05:39:08;100760.28;;;13.93;94.45
62126;BME280;48112;53.282;6.150;2022-09-09T05:40:10;100755.66;;;13.93;94.56
62126;BME280;48112;53.282;6.150;2022-09-09T05:41:14;100757.19;;;13.94;94.71
62126;BME280;48112;53.282;6.150;2022-09-09T05:42:17;100759.56;;;13.96;94.40
62126;BME280;48112;53.282;6.150;2022-09-09T05:43:19;100769.69;;;13.99;94.48